sensor_id;sensor_type;location;lat;lon;timestamp;temperature;humidity
8402;DHT22;4238;48.404;9.498;2022-12-22T00:02:25;6.50;99.90
8402;DHT22;4238;48.404;9.498;2022-12-22T00:05:14;6.50;99.90
8402;DHT22;4238;48.404;9.498;2022-12-22T00:07:59;6.50;99.90
8402;DHT22;4238;48.404;9.498;2022-12-22T00:10:43;6.40;99.90
8402;DHT22;4238;48.404;9.498;2022-12-22T00:13:28;6.40;99.90
8402;DHT22;4238;48.404;9.498;2022-12-22T00:16:12;6.30;99.90
8402;DHT22;4238;48.404;9.498;2022-12-22T00:18:59;6.40;99.90
8402;DHT22;4238;48.404;9.498;2022-12-22T00:21:44;6.50;99.90
8402;DHT22;4238;48.404;9.498;2022-12-22T00:24:28;6.50;99.90
8402;DHT22;4238;48.404;9.498;2022-12-22T00:27:14;6.50;99.90
8402;DHT22;4238;48.404;9.498;2022-12-22T00:29:59;6.50;99.90
8402;DHT22;4238;48.404;9.498;2022-12-22T00:32:44;6.60;99.90
8402;DHT22;4238;48.404;9.498;2022-12-22T00:35:30;6.60;99.90
8402;DHT22;4238;48.404;9.498;2022-12-22T00:38:16;6.60;99.90
8402;DHT22;4238;48.404;9.498;2022-12-22T00:41:01;6.60;99.90
8402;DHT22;4238;48.404;9.498;2022-12-22T00:43:45;6.60;99.90
8402;DHT22;4238;48.404;9.498;2022-12-22T00:46:30;6.60;99.90
8402;DHT22;4238;48.404;9.498;2022-12-22T00:49:15;6.60;99.90
8402;DHT22;4238;48.404;9.498;2022-12-22T00:52:02;6.60;99.90
8402;DHT22;4238;48.404;9.498;2022-12-22T00:54:46;6.60;99.90
8402;DHT22;4238;48.404;9.498;2022-12-22T00:57:31;6.70;99.90
8402;DHT22;4238;48.404;9.498;2022-12-22T01:00:16;6.60;99.90
8402;DHT22;4238;48.404;9.498;2022-12-22T01:03:01;6.60;99.90
8402;DHT22;4238;48.404;9.498;2022-12-22T01:05:47;6.60;99.90
8402;DHT22;4238;48.404;9.498;2022-12-22T01:08:33;6.60;99.90
8402;DHT22;4238;48.404;9.498;2022-12-22T01:11:18;6.60;99.90
8402;DHT22;4238;48.404;9.498;2022-12-22T01:14:02;6.70;99.90
8402;DHT22;4238;48.404;9.498;2022-12-22T01:16:48;6.70;99.90
8402;DHT22;4238;48.404;9.498;2022-12-22T01:19:32;6.70;99.90
8402;DHT22;4238;48.404;9.498;2022-12-22T01:22:20;6.70;99.90
8402;DHT22;4238;48.404;9.498;2022-12-22T01:25:11;6.70;99.90
8402;DHT22;4238;48.404;9.498;2022-12-22T01:27:56;6.80;99.90
8402;DHT22;4238;48.404;9.498;2022-12-22T01:30:40;6.80;99.90
8402;DHT22;4238;48.404;9.498;2022-12-22T01:33:25;6.80;99.90
8402;DHT22;4238;48.404;9.498;2022-12-22T01:36:09;6.80;99.90
8402;DHT22;4238;48.404;9.498;2022-12-22T01:38:53;6.90;99.90
8402;DHT22;4238;48.404;9.498;2022-12-22T01:41:39;6.90;99.90
8402;DHT22;4238;48.404;9.498;2022-12-22T01:44:24;6.90;99.90
8402;DHT22;4238;48.404;9.498;2022-12-22T01:47:38;6.90;99.90
8402;DHT22;4238;48.404;9.498;2022-12-22T01:50:28;6.90;99.90
8402;DHT22;4238;48.404;9.498;2022-12-22T01:53:18;6.90;99.90
8402;DHT22;4238;48.404;9.498;2022-12-22T01:56:03;6.90;99.90
8402;DHT22;4238;48.404;9.498;2022-12-22T01:58:52;6.90;99.90
8402;DHT22;4238;48.404;9.498;2022-12-22T02:01:38;6.80;99.90
8402;DHT22;4238;48.404;9.498;2022-12-22T02:04:25;6.80;99.90
8402;DHT22;4238;48.404;9.498;2022-12-22T02:07:20;6.80;99.90
8402;DHT22;4238;48.404;9.498;2022-12-22T02:10:21;6.80;99.90
8402;DHT22;4238;48.404;9.498;2022-12-22T02:13:21;6.80;99.90
8402;DHT22;4238;48.404;9.498;2022-12-22T02:16:12;6.80;99.90
8402;DHT22;4238;48.404;9.498;2022-12-22T02:19:01;6.90;99.90
8402;DHT22;4238;48.404;9.498;2022-12-22T02:21:57;6.90;99.90
8402;DHT22;4238;48.404;9.498;2022-12-22T02:24:48;6.90;99.90
8402;DHT22;4238;48.404;9.498;2022-12-22T02:27:36;7.00;99.90
8402;DHT22;4238;48.404;9.498;2022-12-22T02:30:22;6.90;99.90
8402;DHT22;4238;48.404;9.498;2022-12-22T02:33:06;7.00;99.90
8402;DHT22;4238;48.404;9.498;2022-12-22T02:35:59;6.90;99.90
8402;DHT22;4238;48.404;9.498;2022-12-22T02:38:52;7.00;99.90
8402;DHT22;4238;48.404;9.498;2022-12-22T02:41:46;7.00;99.90
8402;DHT22;4238;48.404;9.498;2022-12-22T02:44:41;6.90;99.90
8402;DHT22;4238;48.404;9.498;2022-12-22T02:47:35;6.90;99.90
8402;DHT22;4238;48.404;9.498;2022-12-22T02:50:28;7.00;99.90
8402;DHT22;4238;48.404;9.498;2022-12-22T02:53:14;6.90;99.90
8402;DHT22;4238;48.404;9.498;2022-12-22T02:56:02;6.90;99.90
8402;DHT22;4238;48.404;9.498;2022-12-22T02:58:47;6.90;99.90
8402;DHT22;4238;48.404;9.498;2022-12-22T03:01:32;7.00;99.90
8402;DHT22;4238;48.404;9.498;2022-12-22T03:04:17;7.00;99.90
8402;DHT22;4238;48.404;9.498;2022-12-22T03:07:01;6.90;99.90
8402;DHT22;4238;48.404;9.498;2022-12-22T03:09:46;7.00;99.90
8402;DHT22;4238;48.404;9.498;2022-12-22T03:12:30;7.00;99.90
8402;DHT22;4238;48.404;9.498;2022-12-22T03:15:14;7.00;99.90
8402;DHT22;4238;48.404;9.498;2022-12-22T03:18:04;7.00;99.90
8402;DHT22;4238;48.404;9.498;2022-12-22T03:20:49;7.00;99.90
8402;DHT22;4238;48.404;9.498;2022-12-22T03:23:33;7.00;99.90
8402;DHT22;4238;48.404;9.498;2022-12-22T03:26:17;7.00;99.90
8402;DHT22;4238;48.404;9.498;2022-12-22T03:28:45;7.00;99.90
8402;DHT22;4238;48.404;9.498;2022-12-22T03:31:12;7.00;99.90
8402;DHT22;4238;48.404;9.498;2022-12-22T03:33:40;7.00;99.90
8402;DHT22;4238;48.404;9.498;2022-12-22T03:36:08;7.00;99.90
8402;DHT22;4238;48.404;9.498;2022-12-22T03:38:35;6.90;99.90
8402;DHT22;4238;48.404;9.498;2022-12-22T03:41:02;6.90;99.90
8402;DHT22;4238;48.404;9.498;2022-12-22T03:43:29;6.80;99.90
8402;DHT22;4238;48.404;9.498;2022-12-22T03:46:15;6.80;99.90
8402;DHT22;4238;48.404;9.498;2022-12-22T03:49:02;6.80;99.90
8402;DHT22;4238;48.404;9.498;2022-12-22T03:51:41;6.80;99.90
8402;DHT22;4238;48.404;9.498;2022-12-22T03:54:09;6.70;99.90
8402;DHT22;4238;48.404;9.498;2022-12-22T03:56:37;6.70;99.90
8402;DHT22;4238;48.404;9.498;2022-12-22T03:59:04;6.70;99.90
8402;DHT22;4238;48.404;9.498;2022-12-22T04:01:32;6.70;99.90
8402;DHT22;4238;48.404;9.498;2022-12-22T04:04:00;6.70;99.90
8402;DHT22;4238;48.404;9.498;2022-12-22T04:06:27;6.80;99.90
8402;DHT22;4238;48.404;9.498;2022-12-22T04:08:54;6.80;99.90
8402;DHT22;4238;48.404;9.498;2022-12-22T04:11:21;6.80;99.90
8402;DHT22;4238;48.404;9.498;2022-12-22T04:14:05;6.70;99.90
8402;DHT22;4238;48.404;9.498;2022-12-22T04:16:32;6.80;99.90
8402;DHT22;4238;48.404;9.498;2022-12-22T04:19:01;6.80;99.90
8402;DHT22;4238;48.404;9.498;2022-12-22T04:21:27;6.80;99.90
8402;DHT22;4238;48.404;9.498;2022-12-22T04:23:54;6.80;99.90
8402;DHT22;4238;48.404;9.498;2022-12-22T04:26:23;6.80;99.90
8402;DHT22;4238;48.404;9.498;2022-12-22T04:28:50;6.80;99.90
8402;DHT22;4238;48.404;9.498;2022-12-22T04:31:17;6.80;99.90
8402;DHT22;4238;48.404;9.498;2022-12-22T04:33:45;6.80;99.90
8402;DHT22;4238;48.404;9.498;2022-12-22T04:36:14;6.80;99.90
8402;DHT22;4238;48.404;9.498;2022-12-22T04:38:41;6.80;99.90
8402;DHT22;4238;48.404;9.498;2022-12-22T04:41:08;6.90;99.90
8402;DHT22;4238;48.404;9.498;2022-12-22T04:43:35;6.90;99.90
8402;DHT22;4238;48.404;9.498;2022-12-22T04:46:02;6.90;99.90
8402;DHT22;4238;48.404;9.498;2022-12-22T04:48:30;6.90;99.90
8402;DHT22;4238;48.404;9.498;2022-12-22T04:50:58;6.90;99.90
8402;DHT22;4238;48.404;9.498;2022-12-22T04:53:28;6.90;99.90
8402;DHT22;4238;48.404;9.498;2022-12-22T04:55:57;7.00;99.90
8402;DHT22;4238;48.404;9.498;2022-12-22T04:58:25;7.00;99.90
8402;DHT22;4238;48.404;9.498;2022-12-22T05:00:53;7.00;99.90
8402;DHT22;4238;48.404;9.498;2022-12-22T05:03:20;7.00;99.90
8402;DHT22;4238;48.404;9.498;2022-12-22T05:05:47;7.00;99.90
8402;DHT22;4238;48.404;9.498;2022-12-22T05:08:14;7.00;99.90
8402;DHT22;4238;48.404;9.498;2022-12-22T05:10:42;7.00;99.90
8402;DHT22;4238;48.404;9.498;2022-12-22T05:13:09;7.00;99.90
8402;DHT22;4238;48.404;9.498;2022-12-22T05:15:36;7.00;99.90
8402;DHT22;4238;48.404;9.498;2022-12-22T05:18:04;7.00;99.90
8402;DHT22;4238;48.404;9.498;2022-12-22T05:20:31;7.10;99.90
8402;DHT22;4238;48.404;9.498;2022-12-22T05:22:58;7.10;99.90
8402;DHT22;4238;48.404;9.498;2022-12-22T05:25:25;7.10;99.90
8402;DHT22;4238;48.404;9.498;2022-12-22T05:27:53;7.20;99.90
8402;DHT22;4238;48.404;9.498;2022-12-22T05:30:20;7.20;99.90
8402;DHT22;4238;48.404;9.498;2022-12-22T05:32:47;7.20;99.90
8402;DHT22;4238;48.404;9.498;2022-12-22T05:35:15;7.30;99.90
8402;DHT22;4238;48.404;9.498;2022-12-22T05:37:42;7.30;99.90
8402;DHT22;4238;48.404;9.498;2022-12-22T05:40:10;7.30;99.90
8402;DHT22;4238;48.404;9.498;2022-12-22T05:42:37;7.40;99.90
8402;DHT22;4238;48.404;9.498;2022-12-22T05:45:09;7.30;99.90
8402;DHT22;4238;48.404;9.498;2022-12-22T05:47:38;7.40;99.90
8402;DHT22;4238;48.404;9.498;2022-12-22T05:50:06;7.40;99.90
8402;DHT22;4238;48.404;9.498;2022-12-22T05:52:34;7.40;99.90
8402;DHT22;4238;48.404;9.498;2022-12-22T05:55:01;7.40;99.90
8402;DHT22;4238;48.404;9.498;2022-12-22T05:57:28;7.40;99.90
8402;DHT22;4238;48.404;9.498;2022-12-22T05:59:55;7.40;99.90
8402;DHT22;4238;48.404;9.498;2022-12-22T06:02:23;7.40;99.90
8402;DHT22;4238;48.404;9.498;2022-12-22T06:04:50;7.40;99.90
8402;DHT22;4238;48.404;9.498;2022-12-22T06:07:17;7.40;99.90
8402;DHT22;4238;48.404;9.498;2022-12-22T06:09:44;7.40;99.90
8402;DHT22;4238;48.404;9.498;2022-12-22T06:12:11;7.40;99.90
8402;DHT22;4238;48.404;9.498;2022-12-22T06:14:38;7.30;99.90
8402;DHT22;4238;48.404;9.498;2022-12-22T06:17:05;7.30;99.90
8402;DHT22;4238;48.404;9.498;2022-12-22T06:19:34;7.30;99.90
8402;DHT22;4238;48.404;9.498;2022-12-22T06:22:00;7.40;99.90
8402;DHT22;4238;48.404;9.498;2022-12-22T06:24:27;7.30;99.90
8402;DHT22;4238;48.404;9.498;2022-12-22T06:26:54;7.30;99.90
8402;DHT22;4238;48.404;9.498;2022-12-22T06:29:21;7.30;99.90
8402;DHT22;4238;48.404;9.498;2022-12-22T06:31:48;7.30;99.90
8402;DHT22;4238;48.404;9.498;2022-12-22T06:34:15;7.30;99.90
8402;DHT22;4238;48.404;9.498;2022-12-22T06:36:44;7.20;99.90
8402;DHT22;4238;48.404;9.498;2022-12-22T06:39:12;7.10;99.90
8402;DHT22;4238;48.404;9.498;2022-12-22T06:41:39;7.10;99.90
8402;DHT22;4238;48.404;9.498;2022-12-22T06:44:23;7.10;99.90
8402;DHT22;4238;48.404;9.498;2022-12-22T06:46:50;7.10;99.90
8402;DHT22;4238;48.404;9.498;2022-12-22T06:49:18;7.00;99.90
8402;DHT22;4238;48.404;9.498;2022-12-22T06:51:46;7.00;99.90
8402;DHT22;4238;48.404;9.498;2022-12-22T06:54:13;6.90;99.90
8402;DHT22;4238;48.404;9.498;2022-12-22T06:56:40;6.90;99.90
8402;DHT22;4238;48.404;9.498;2022-12-22T06:59:07;6.90;99.90
8402;DHT22;4238;48.404;9.498;2022-12-22T07:01:34;6.90;99.90
8402;DHT22;4238;48.404;9.498;2022-12-22T07:04:01;6.90;99.90
8402;DHT22;4238;48.404;9.498;2022-12-22T07:06:28;6.90;99.90
8402;DHT22;4238;48.404;9.498;2022-12-22T07:08:56;6.90;99.90
8402;DHT22;4238;48.404;9.498;2022-12-22T07:11:23;6.80;99.90
8402;DHT22;4238;48.404;9.498;2022-12-22T07:13:50;6.80;99.90
8402;DHT22;4238;48.404;9.498;2022-12-22T07:16:17;6.80;99.90
8402;DHT22;4238;48.404;9.498;2022-12-22T07:18:44;6.90;99.90
8402;DHT22;4238;48.404;9.498;2022-12-22T07:21:12;6.80;99.90
8402;DHT22;4238;48.404;9.498;2022-12-22T07:23:40;6.80;99.90
8402;DHT22;4238;48.404;9.498;2022-12-22T07:26:09;6.80;99.90
8402;DHT22;4238;48.404;9.498;2022-12-22T07:28:37;6.80;99.90
8402;DHT22;4238;48.404;9.498;2022-12-22T07:31:05;6.80;99.90
8402;DHT22;4238;48.404;9.498;2022-12-22T07:33:32;6.80;99.90
8402;DHT22;4238;48.404;9.498;2022-12-22T07:36:01;6.90;99.90
8402;DHT22;4238;48.404;9.498;2022-12-22T07:38:30;6.90;99.90
8402;DHT22;4238;48.404;9.498;2022-12-22T07:40:57;6.90;99.90
8402;DHT22;4238;48.404;9.498;2022-12-22T07:43:25;6.80;99.90
8402;DHT22;4238;48.404;9.498;2022-12-22T07:45:51;6.90;99.90
8402;DHT22;4238;48.404;9.498;2022-12-22T07:48:18;6.90;99.90
8402;DHT22;4238;48.404;9.498;2022-12-22T07:51:04;6.90;99.90
8402;DHT22;4238;48.404;9.498;2022-12-22T07:53:32;6.90;99.90
8402;DHT22;4238;48.404;9.498;2022-12-22T07:56:03;7.00;99.90
8402;DHT22;4238;48.404;9.498;2022-12-22T07:58:32;7.00;99.90
8402;DHT22;4238;48.404;9.498;2022-12-22T08:00:59;7.00;99.90
8402;DHT22;4238;48.404;9.498;2022-12-22T08:03:27;7.00;99.90
8402;DHT22;4238;48.404;9.498;2022-12-22T08:05:54;7.10;99.90
8402;DHT22;4238;48.404;9.498;2022-12-22T08:08:21;7.10;99.90
8402;DHT22;4238;48.404;9.498;2022-12-22T08:10:48;7.10;99.90
8402;DHT22;4238;48.404;9.498;2022-12-22T08:13:14;7.10;99.90
8402;DHT22;4238;48.404;9.498;2022-12-22T08:15:43;7.20;99.90
8402;DHT22;4238;48.404;9.498;2022-12-22T08:18:09;7.10;99.90
8402;DHT22;4238;48.404;9.498;2022-12-22T08:20:36;7.20;99.90
8402;DHT22;4238;48.404;9.498;2022-12-22T08:23:03;7.20;99.90
8402;DHT22;4238;48.404;9.498;2022-12-22T08:25:32;7.20;99.90
8402;DHT22;4238;48.404;9.498;2022-12-22T08:28:04;7.30;99.90
8402;DHT22;4238;48.404;9.498;2022-12-22T08:30:32;7.30;99.90
8402;DHT22;4238;48.404;9.498;2022-12-22T08:33:00;7.20;99.90
8402;DHT22;4238;48.404;9.498;2022-12-22T08:35:27;7.20;99.90
8402;DHT22;4238;48.404;9.498;2022-12-22T08:37:54;7.30;99.90
8402;DHT22;4238;48.404;9.498;2022-12-22T08:40:23;7.30;99.90
8402;DHT22;4238;48.404;9.498;2022-12-22T08:42:52;7.40;99.90
8402;DHT22;4238;48.404;9.498;2022-12-22T08:45:20;7.50;99.90
8402;DHT22;4238;48.404;9.498;2022-12-22T08:47:47;7.40;99.90
8402;DHT22;4238;48.404;9.498;2022-12-22T08:50:15;7.30;99.90
8402;DHT22;4238;48.404;9.498;2022-12-22T08:52:42;7.20;99.90
8402;DHT22;4238;48.404;9.498;2022-12-22T08:55:09;7.20;99.90
8402;DHT22;4238;48.404;9.498;2022-12-22T08:57:37;7.10;99.90
8402;DHT22;4238;48.404;9.498;2022-12-22T09:00:04;7.10;99.90
8402;DHT22;4238;48.404;9.498;2022-12-22T09:02:33;7.10;99.90
8402;DHT22;4238;48.404;9.498;2022-12-22T09:05:00;7.10;99.90
8402;DHT22;4238;48.404;9.498;2022-12-22T09:07:28;7.10;99.90
8402;DHT22;4238;48.404;9.498;2022-12-22T09:09:55;7.10;99.90
8402;DHT22;4238;48.404;9.498;2022-12-22T09:12:23;7.10;99.90
8402;DHT22;4238;48.404;9.498;2022-12-22T09:14:50;7.10;99.90
8402;DHT22;4238;48.404;9.498;2022-12-22T09:17:17;7.10;99.90
8402;DHT22;4238;48.404;9.498;2022-12-22T09:19:43;7.20;99.90
8402;DHT22;4238;48.404;9.498;2022-12-22T09:22:10;7.20;99.90
8402;DHT22;4238;48.404;9.498;2022-12-22T09:24:39;7.30;99.90
8402;DHT22;4238;48.404;9.498;2022-12-22T09:27:06;7.50;99.90
8402;DHT22;4238;48.404;9.498;2022-12-22T09:29:34;7.80;99.90
8402;DHT22;4238;48.404;9.498;2022-12-22T09:32:00;7.90;99.90
8402;DHT22;4238;48.404;9.498;2022-12-22T09:34:27;7.90;99.90
8402;DHT22;4238;48.404;9.498;2022-12-22T09:36:54;7.90;99.90
8402;DHT22;4238;48.404;9.498;2022-12-22T09:39:21;7.80;99.90
8402;DHT22;4238;48.404;9.498;2022-12-22T09:41:51;7.70;99.90
8402;DHT22;4238;48.404;9.498;2022-12-22T09:44:23;7.70;99.90
8402;DHT22;4238;48.404;9.498;2022-12-22T09:46:51;7.60;99.90
8402;DHT22;4238;48.404;9.498;2022-12-22T09:49:19;7.50;99.90
8402;DHT22;4238;48.404;9.498;2022-12-22T09:51:50;7.50;99.90
8402;DHT22;4238;48.404;9.498;2022-12-22T09:54:18;7.50;99.90
8402;DHT22;4238;48.404;9.498;2022-12-22T09:56:46;7.50;99.90
8402;DHT22;4238;48.404;9.498;2022-12-22T09:59:16;7.50;99.90
8402;DHT22;4238;48.404;9.498;2022-12-22T10:01:59;7.40;99.90
8402;DHT22;4238;48.404;9.498;2022-12-22T10:04:38;7.40;99.90
8402;DHT22;4238;48.404;9.498;2022-12-22T10:07:16;7.40;99.90
8402;DHT22;4238;48.404;9.498;2022-12-22T10:09:47;7.40;99.90
8402;DHT22;4238;48.404;9.498;2022-12-22T10:12:16;7.50;99.90
8402;DHT22;4238;48.404;9.498;2022-12-22T10:14:46;7.50;99.90
8402;DHT22;4238;48.404;9.498;2022-12-22T10:17:15;7.60;99.90
8402;DHT22;4238;48.404;9.498;2022-12-22T10:19:42;7.60;99.90
8402;DHT22;4238;48.404;9.498;2022-12-22T10:22:19;7.70;99.90
8402;DHT22;4238;48.404;9.498;2022-12-22T10:24:47;7.70;99.90
8402;DHT22;4238;48.404;9.498;2022-12-22T10:27:15;7.70;99.90
8402;DHT22;4238;48.404;9.498;2022-12-22T10:29:43;7.70;99.90
8402;DHT22;4238;48.404;9.498;2022-12-22T10:32:13;7.70;99.90
8402;DHT22;4238;48.404;9.498;2022-12-22T10:34:57;7.70;99.90
8402;DHT22;4238;48.404;9.498;2022-12-22T10:37:30;7.70;99.90
8402;DHT22;4238;48.404;9.498;2022-12-22T10:39:57;7.60;99.90
8402;DHT22;4238;48.404;9.498;2022-12-22T10:42:24;7.60;99.90
8402;DHT22;4238;48.404;9.498;2022-12-22T10:44:51;7.70;99.90
8402;DHT22;4238;48.404;9.498;2022-12-22T10:47:21;7.70;99.90
8402;DHT22;4238;48.404;9.498;2022-12-22T10:49:50;7.70;99.90
8402;DHT22;4238;48.404;9.498;2022-12-22T10:52:23;7.70;99.90
8402;DHT22;4238;48.404;9.498;2022-12-22T10:54:50;7.70;99.90
8402;DHT22;4238;48.404;9.498;2022-12-22T10:57:27;7.70;99.90
8402;DHT22;4238;48.404;9.498;2022-12-22T10:59:56;7.80;99.90
8402;DHT22;4238;48.404;9.498;2022-12-22T11:02:32;7.80;99.90
8402;DHT22;4238;48.404;9.498;2022-12-22T11:05:07;7.80;99.90
8402;DHT22;4238;48.404;9.498;2022-12-22T11:07:36;7.80;99.90
8402;DHT22;4238;48.404;9.498;2022-12-22T11:10:14;7.90;99.90
8402;DHT22;4238;48.404;9.498;2022-12-22T11:15:37;8.00;99.90
8402;DHT22;4238;48.404;9.498;2022-12-22T11:18:18;8.00;99.90
8402;DHT22;4238;48.404;9.498;2022-12-22T11:20:54;8.00;99.90
8402;DHT22;4238;48.404;9.498;2022-12-22T11:23:32;8.10;99.90
8402;DHT22;4238;48.404;9.498;2022-12-22T11:26:10;8.10;99.90
8402;DHT22;4238;48.404;9.498;2022-12-22T11:28:54;8.10;99.90
8402;DHT22;4238;48.404;9.498;2022-12-22T11:31:40;8.10;99.90
8402;DHT22;4238;48.404;9.498;2022-12-22T11:34:24;8.20;99.90
8402;DHT22;4238;48.404;9.498;2022-12-22T11:37:03;8.30;99.90
8402;DHT22;4238;48.404;9.498;2022-12-22T11:39:41;8.50;99.90
8402;DHT22;4238;48.404;9.498;2022-12-22T11:42:32;8.60;99.90
8402;DHT22;4238;48.404;9.498;2022-12-22T11:45:08;8.80;99.90
8402;DHT22;4238;48.404;9.498;2022-12-22T11:47:46;9.10;99.90
8402;DHT22;4238;48.404;9.498;2022-12-22T11:50:28;9.30;99.90
8402;DHT22;4238;48.404;9.498;2022-12-22T11:53:05;9.30;99.90
8402;DHT22;4238;48.404;9.498;2022-12-22T11:55:43;9.20;99.90
8402;DHT22;4238;48.404;9.498;2022-12-22T11:58:35;9.10;99.90
8402;DHT22;4238;48.404;9.498;2022-12-22T12:01:15;9.10;99.90
8402;DHT22;4238;48.404;9.498;2022-12-22T12:07:15;9.00;99.90
8402;DHT22;4238;48.404;9.498;2022-12-22T12:09:51;8.90;99.90
8402;DHT22;4238;48.404;9.498;2022-12-22T12:12:26;8.80;99.90
8402;DHT22;4238;48.404;9.498;2022-12-22T12:15:06;8.70;99.90
8402;DHT22;4238;48.404;9.498;2022-12-22T12:17:47;8.70;99.90
8402;DHT22;4238;48.404;9.498;2022-12-22T12:20:37;8.60;99.90
8402;DHT22;4238;48.404;9.498;2022-12-22T12:23:22;8.60;99.90
8402;DHT22;4238;48.404;9.498;2022-12-22T12:25:58;8.60;99.90
8402;DHT22;4238;48.404;9.498;2022-12-22T12:28:34;8.60;99.90
8402;DHT22;4238;48.404;9.498;2022-12-22T12:31:05;8.60;99.90
8402;DHT22;4238;48.404;9.498;2022-12-22T12:33:35;8.60;99.90
8402;DHT22;4238;48.404;9.498;2022-12-22T12:36:12;8.60;99.90
8402;DHT22;4238;48.404;9.498;2022-12-22T12:38:47;8.50;99.90
8402;DHT22;4238;48.404;9.498;2022-12-22T12:41:22;8.50;99.90
8402;DHT22;4238;48.404;9.498;2022-12-22T12:43:53;8.50;99.90
8402;DHT22;4238;48.404;9.498;2022-12-22T12:46:54;8.50;99.90
8402;DHT22;4238;48.404;9.498;2022-12-22T12:49:55;8.50;99.90
8402;DHT22;4238;48.404;9.498;2022-12-22T12:53:04;8.50;99.90
8402;DHT22;4238;48.404;9.498;2022-12-22T12:55:49;8.40;99.90
8402;DHT22;4238;48.404;9.498;2022-12-22T12:58:45;8.40;99.90
8402;DHT22;4238;48.404;9.498;2022-12-22T13:13:50;8.60;99.90
8402;DHT22;4238;48.404;9.498;2022-12-22T13:16:26;8.70;99.90
8402;DHT22;4238;48.404;9.498;2022-12-22T13:18:54;8.90;99.90
8402;DHT22;4238;48.404;9.498;2022-12-22T13:21:27;8.80;99.90
8402;DHT22;4238;48.404;9.498;2022-12-22T13:23:58;8.80;99.90
8402;DHT22;4238;48.404;9.498;2022-12-22T13:26:31;8.70;99.90
8402;DHT22;4238;48.404;9.498;2022-12-22T13:29:03;8.70;99.90
8402;DHT22;4238;48.404;9.498;2022-12-22T13:31:35;8.70;99.90
8402;DHT22;4238;48.404;9.498;2022-12-22T13:34:24;8.70;99.90
8402;DHT22;4238;48.404;9.498;2022-12-22T13:36:56;8.70;99.90
8402;DHT22;4238;48.404;9.498;2022-12-22T13:39:24;8.70;99.90
8402;DHT22;4238;48.404;9.498;2022-12-22T13:41:51;8.80;99.90
8402;DHT22;4238;48.404;9.498;2022-12-22T13:44:24;8.80;99.90
8402;DHT22;4238;48.404;9.498;2022-12-22T13:46:54;8.80;97.30
8402;DHT22;4238;48.404;9.498;2022-12-22T13:49:24;8.80;99.70
8402;DHT22;4238;48.404;9.498;2022-12-22T13:51:52;8.90;99.90
8402;DHT22;4238;48.404;9.498;2022-12-22T13:54:22;9.00;97.00
8402;DHT22;4238;48.404;9.498;2022-12-22T13:56:53;9.10;98.80
8402;DHT22;4238;48.404;9.498;2022-12-22T13:59:27;9.30;94.80
8402;DHT22;4238;48.404;9.498;2022-12-22T14:02:00;9.30;91.70
8402;DHT22;4238;48.404;9.498;2022-12-22T14:04:27;9.30;88.20
8402;DHT22;4238;48.404;9.498;2022-12-22T14:06:55;9.20;82.50
8402;DHT22;4238;48.404;9.498;2022-12-22T14:09:24;9.20;84.30
8402;DHT22;4238;48.404;9.498;2022-12-22T14:11:55;9.10;89.90
8402;DHT22;4238;48.404;9.498;2022-12-22T14:14:27;9.10;87.60
8402;DHT22;4238;48.404;9.498;2022-12-22T14:16:56;9.10;90.70
8402;DHT22;4238;48.404;9.498;2022-12-22T14:19:25;9.10;92.70
8402;DHT22;4238;48.404;9.498;2022-12-22T14:22:01;9.20;84.50
8402;DHT22;4238;48.404;9.498;2022-12-22T14:24:31;9.30;87.80
8402;DHT22;4238;48.404;9.498;2022-12-22T14:27:00;9.30;71.90
8402;DHT22;4238;48.404;9.498;2022-12-22T14:29:29;9.20;71.80
8402;DHT22;4238;48.404;9.498;2022-12-22T14:31:58;9.10;69.80
8402;DHT22;4238;48.404;9.498;2022-12-22T14:34:27;9.00;74.50
8402;DHT22;4238;48.404;9.498;2022-12-22T14:36:55;8.90;86.10
8402;DHT22;4238;48.404;9.498;2022-12-22T14:39:23;8.90;85.20
8402;DHT22;4238;48.404;9.498;2022-12-22T14:41:52;8.80;86.50
8402;DHT22;4238;48.404;9.498;2022-12-22T14:44:22;8.70;75.10
8402;DHT22;4238;48.404;9.498;2022-12-22T14:47:14;8.70;79.40
8402;DHT22;4238;48.404;9.498;2022-12-22T14:49:44;8.60;79.80
8402;DHT22;4238;48.404;9.498;2022-12-22T14:52:19;8.60;80.50
8402;DHT22;4238;48.404;9.498;2022-12-22T14:54:47;8.50;84.90
8402;DHT22;4238;48.404;9.498;2022-12-22T14:57:18;8.50;83.80
8402;DHT22;4238;48.404;9.498;2022-12-22T14:59:57;8.50;85.00
8402;DHT22;4238;48.404;9.498;2022-12-22T15:02:28;8.30;91.00
8402;DHT22;4238;48.404;9.498;2022-12-22T15:05:14;8.30;90.20
8402;DHT22;4238;48.404;9.498;2022-12-22T15:07:44;8.30;90.50
8402;DHT22;4238;48.404;9.498;2022-12-22T15:10:11;8.30;93.20
8402;DHT22;4238;48.404;9.498;2022-12-22T15:12:38;8.30;88.70
8402;DHT22;4238;48.404;9.498;2022-12-22T15:15:15;8.30;93.10
8402;DHT22;4238;48.404;9.498;2022-12-22T15:17:45;8.30;95.30
8402;DHT22;4238;48.404;9.498;2022-12-22T15:20:17;8.30;92.70
8402;DHT22;4238;48.404;9.498;2022-12-22T15:22:45;8.30;94.20
8402;DHT22;4238;48.404;9.498;2022-12-22T15:25:14;8.20;96.00
8402;DHT22;4238;48.404;9.498;2022-12-22T15:27:41;8.30;96.20
8402;DHT22;4238;48.404;9.498;2022-12-22T15:30:11;8.30;95.00
8402;DHT22;4238;48.404;9.498;2022-12-22T15:32:39;8.20;97.40
8402;DHT22;4238;48.404;9.498;2022-12-22T15:35:15;8.30;96.70
8402;DHT22;4238;48.404;9.498;2022-12-22T15:37:42;8.30;98.10
8402;DHT22;4238;48.404;9.498;2022-12-22T15:40:13;8.20;94.40
8402;DHT22;4238;48.404;9.498;2022-12-22T15:42:40;8.20;94.60
8402;DHT22;4238;48.404;9.498;2022-12-22T15:45:08;8.20;97.70
8402;DHT22;4238;48.404;9.498;2022-12-22T15:47:35;8.20;96.90
8402;DHT22;4238;48.404;9.498;2022-12-22T15:50:02;8.20;98.20
8402;DHT22;4238;48.404;9.498;2022-12-22T15:52:31;8.20;97.20
8402;DHT22;4238;48.404;9.498;2022-12-22T15:54:59;8.20;95.30
8402;DHT22;4238;48.404;9.498;2022-12-22T15:57:26;8.20;94.20
8402;DHT22;4238;48.404;9.498;2022-12-22T15:59:53;8.20;96.20
8402;DHT22;4238;48.404;9.498;2022-12-22T16:02:20;8.30;94.30
8402;DHT22;4238;48.404;9.498;2022-12-22T16:04:47;8.30;96.10
8402;DHT22;4238;48.404;9.498;2022-12-22T16:07:13;8.30;97.00
8402;DHT22;4238;48.404;9.498;2022-12-22T16:09:43;8.20;90.40
8402;DHT22;4238;48.404;9.498;2022-12-22T16:12:15;8.20;91.70
8402;DHT22;4238;48.404;9.498;2022-12-22T16:14:45;8.20;92.60
8402;DHT22;4238;48.404;9.498;2022-12-22T16:17:17;8.20;92.90
8402;DHT22;4238;48.404;9.498;2022-12-22T16:19:44;8.20;91.10
8402;DHT22;4238;48.404;9.498;2022-12-22T16:22:13;8.20;89.30
8402;DHT22;4238;48.404;9.498;2022-12-22T16:24:44;8.20;85.10
8402;DHT22;4238;48.404;9.498;2022-12-22T16:27:12;8.20;84.20
8402;DHT22;4238;48.404;9.498;2022-12-22T16:29:42;8.20;86.00
8402;DHT22;4238;48.404;9.498;2022-12-22T16:32:14;8.20;83.70
8402;DHT22;4238;48.404;9.498;2022-12-22T16:34:42;8.20;85.90
8402;DHT22;4238;48.404;9.498;2022-12-22T16:37:09;8.20;88.20
8402;DHT22;4238;48.404;9.498;2022-12-22T16:39:36;8.10;86.00
8402;DHT22;4238;48.404;9.498;2022-12-22T16:42:05;8.10;84.50
8402;DHT22;4238;48.404;9.498;2022-12-22T16:44:32;8.10;78.00
8402;DHT22;4238;48.404;9.498;2022-12-22T16:46:59;8.10;80.20
8402;DHT22;4238;48.404;9.498;2022-12-22T16:49:28;8.10;83.20
8402;DHT22;4238;48.404;9.498;2022-12-22T16:51:55;8.10;87.30
8402;DHT22;4238;48.404;9.498;2022-12-22T16:54:22;8.10;88.50
8402;DHT22;4238;48.404;9.498;2022-12-22T16:56:49;8.10;84.50
8402;DHT22;4238;48.404;9.498;2022-12-22T16:59:17;8.10;88.60
8402;DHT22;4238;48.404;9.498;2022-12-22T17:01:47;8.00;89.00
8402;DHT22;4238;48.404;9.498;2022-12-22T17:04:17;8.00;90.80
8402;DHT22;4238;48.404;9.498;2022-12-22T17:06:45;8.00;94.20
8402;DHT22;4238;48.404;9.498;2022-12-22T17:09:16;8.00;92.60
8402;DHT22;4238;48.404;9.498;2022-12-22T17:11:45;8.00;95.30
8402;DHT22;4238;48.404;9.498;2022-12-22T17:14:23;8.00;97.70
8402;DHT22;4238;48.404;9.498;2022-12-22T17:16:52;8.00;97.40
8402;DHT22;4238;48.404;9.498;2022-12-22T17:19:18;8.00;97.30